createdAt,value
2019-01-20T00:28:59.611Z,78.00
2019-01-20T00:29:00.183Z,77.81
2019-01-20T00:29:00.783Z,77.81
2019-01-20T00:29:01.384Z,78.00
2019-01-20T00:29:01.984Z,77.81
2019-01-20T00:29:02.583Z,77.81
2019-01-20T00:29:03.184Z,77.81
2019-01-20T00:29:03.782Z,77.81
2019-01-20T00:29:58.287Z,78.00
2019-01-20T00:29:58.859Z,77.81
2019-01-20T00:29:59.459Z,78.00
2019-01-20T00:30:00.136Z,77.91
2019-01-20T00:30:00.659Z,77.91
2019-01-20T00:30:01.260Z,78.00
2019-01-20T00:30:01.860Z,78.00
2019-01-20T00:30:02.458Z,78.00
2019-01-20T00:30:55.940Z,78.00
2019-01-20T00:30:56.514Z,78.00
2019-01-20T00:30:57.113Z,78.00
2019-01-20T00:30:57.716Z,77.62
2019-01-20T00:30:58.317Z,77.91
2019-01-20T00:30:58.912Z,78.00
2019-01-20T00:30:59.511Z,78.00
2019-01-20T00:31:00.111Z,77.72
2019-01-20T00:31:53.593Z,77.91
2019-01-20T00:31:54.165Z,78.00
2019-01-20T00:31:54.765Z,77.91
2019-01-20T00:31:55.366Z,78.00
2019-01-20T00:31:55.965Z,78.00
2019-01-20T00:31:56.564Z,78.00
2019-01-20T00:31:57.164Z,78.00
2019-01-20T00:31:57.764Z,78.00
2019-01-20T00:32:52.270Z,78.00
2019-01-20T00:32:52.842Z,77.72
2019-01-20T00:32:53.442Z,77.91
2019-01-20T00:32:54.041Z,77.72
2019-01-20T00:32:54.641Z,78.00
2019-01-20T00:32:55.241Z,77.72
2019-01-20T00:32:55.838Z,77.91
2019-01-20T00:32:56.442Z,78.00
2019-01-20T00:33:49.920Z,77.91
2019-01-20T00:33:50.496Z,77.91
2019-01-20T00:33:51.094Z,77.91
2019-01-20T00:33:51.696Z,77.91
2019-01-20T00:33:52.294Z,77.81
2019-01-20T00:33:52.893Z,77.91
2019-01-20T00:33:53.492Z,77.91
2019-01-20T00:33:54.091Z,77.91
2019-01-20T00:34:48.598Z,77.91
2019-01-20T00:34:49.168Z,78.00
2019-01-20T00:34:49.769Z,77.91
2019-01-20T00:34:50.368Z,77.91
2019-01-20T00:34:50.968Z,77.91
2019-01-20T00:34:51.568Z,77.91
2019-01-20T00:34:52.167Z,77.91
2019-01-20T00:34:52.767Z,77.91
2019-01-20T00:35:47.271Z,77.91
2019-01-20T00:35:47.846Z,77.91
2019-01-20T00:35:48.447Z,77.91
2019-01-20T00:35:49.044Z,77.72
2019-01-20T00:35:49.647Z,77.81
2019-01-20T00:35:50.246Z,77.91
2019-01-20T00:35:50.844Z,77.91
2019-01-20T00:35:51.443Z,77.91
2019-01-20T00:36:44.929Z,78.09
2019-01-20T00:36:45.498Z,77.91
2019-01-20T00:36:46.099Z,78.19
2019-01-20T00:36:46.699Z,77.91
2019-01-20T00:36:47.298Z,77.91
2019-01-20T00:36:47.897Z,77.91
2019-01-20T00:36:48.498Z,77.91
2019-01-20T00:36:49.098Z,78.28
2019-01-20T00:37:42.598Z,78.28
2019-01-20T00:37:43.151Z,78.09
2019-01-20T00:37:43.751Z,77.91
2019-01-20T00:37:44.349Z,78.38
2019-01-20T00:37:44.949Z,77.81
2019-01-20T00:37:45.550Z,78.38
2019-01-20T00:37:46.150Z,78.09
2019-01-20T00:37:46.748Z,78.19
2019-01-20T00:38:40.228Z,77.91
2019-01-20T00:38:40.804Z,77.91
2019-01-20T00:38:41.402Z,78.19
2019-01-20T00:38:42.002Z,77.91
2019-01-20T00:38:42.650Z,78.09
2019-01-20T00:38:43.201Z,77.81
2019-01-20T00:38:43.801Z,77.91
2019-01-20T00:38:44.401Z,78.19
2019-01-20T00:39:37.881Z,78.19
2019-01-20T00:39:38.454Z,78.38
2019-01-20T00:39:39.054Z,78.09
2019-01-20T00:39:39.653Z,78.28
2019-01-20T00:39:40.256Z,78.28
2019-01-20T00:39:40.852Z,78.19
2019-01-20T00:39:41.454Z,78.19
2019-01-20T00:39:42.063Z,78.09
2019-01-20T00:40:36.556Z,77.91
2019-01-20T00:40:37.128Z,77.81
2019-01-20T00:40:37.730Z,78.00
2019-01-20T00:40:38.328Z,77.53
2019-01-20T00:40:38.928Z,77.91
2019-01-20T00:40:39.527Z,78.00
2019-01-20T00:40:40.127Z,77.91
2019-01-20T00:40:40.726Z,77.91
2019-01-20T00:41:35.231Z,78.00
2019-01-20T00:41:35.805Z,77.62
2019-01-20T00:41:36.405Z,77.62
2019-01-20T00:41:37.005Z,77.53
2019-01-20T00:41:37.604Z,77.53
2019-01-20T00:41:38.203Z,77.53
2019-01-20T00:41:38.804Z,77.62
2019-01-20T00:41:39.402Z,77.62
2019-01-20T00:42:33.908Z,77.81
2019-01-20T00:42:34.480Z,77.72
2019-01-20T00:42:35.081Z,77.72
2019-01-20T00:42:35.684Z,77.53
2019-01-20T00:42:36.279Z,77.53
2019-01-20T00:42:36.880Z,77.72
2019-01-20T00:42:37.479Z,77.72
2019-01-20T00:42:38.078Z,77.53
2019-01-20T00:43:32.582Z,77.62
2019-01-20T00:43:33.156Z,77.53
2019-01-20T00:43:33.755Z,77.72
2019-01-20T00:43:34.356Z,77.62
2019-01-20T00:43:34.955Z,77.72
2019-01-20T00:43:35.555Z,77.62
2019-01-20T00:43:36.154Z,77.62
2019-01-20T00:43:36.756Z,77.62
2019-01-20T00:44:30.236Z,78.00
2019-01-20T00:44:30.810Z,77.62
2019-01-20T00:44:31.413Z,77.72
2019-01-20T00:44:32.009Z,77.44
2019-01-20T00:44:32.608Z,77.62
2019-01-20T00:44:33.208Z,77.62
2019-01-20T00:44:33.807Z,77.62
2019-01-20T00:44:34.408Z,77.62
2019-01-20T00:45:28.911Z,77.62
2019-01-20T00:45:29.484Z,77.91
2019-01-20T00:45:30.084Z,77.91
2019-01-20T00:45:30.683Z,77.72
2019-01-20T00:45:31.283Z,77.62
2019-01-20T00:45:31.884Z,77.62
2019-01-20T00:45:32.483Z,77.53
2019-01-20T00:45:33.084Z,77.53
2019-01-20T00:46:27.587Z,78.09
2019-01-20T00:46:28.162Z,77.44
2019-01-20T00:46:28.759Z,77.94
2019-01-20T00:46:29.360Z,77.91
2019-01-20T00:46:29.958Z,77.91
2019-01-20T00:46:30.558Z,77.91
2019-01-20T00:46:31.159Z,78.00
2019-01-20T00:46:31.760Z,77.72
2019-01-20T00:47:26.261Z,77.34
2019-01-20T00:47:26.836Z,77.81
2019-01-20T00:47:27.435Z,77.25
2019-01-20T00:47:28.036Z,78.19
2019-01-20T00:47:28.635Z,78.19
2019-01-20T00:47:29.236Z,77.34
2019-01-20T00:47:29.833Z,77.91
2019-01-20T00:47:30.433Z,77.91
2019-01-20T00:48:23.915Z,77.62
2019-01-20T00:48:24.487Z,77.53
2019-01-20T00:48:25.086Z,77.53
2019-01-20T00:48:25.687Z,77.53
2019-01-20T00:48:26.288Z,77.53
2019-01-20T00:48:26.887Z,77.53
2019-01-20T00:48:27.507Z,77.53
2019-01-20T00:48:28.101Z,77.53
2019-01-20T00:49:21.609Z,77.66
2019-01-20T00:49:22.142Z,77.72
2019-01-20T00:49:22.738Z,77.25
2019-01-20T00:49:23.339Z,77.28
2019-01-20T00:49:23.938Z,77.34
2019-01-20T00:49:24.540Z,77.47
2019-01-20T00:49:25.137Z,77.62
2019-01-20T00:49:25.736Z,77.56
2019-01-20T00:50:20.307Z,77.34
2019-01-20T00:50:20.815Z,77.28
2019-01-20T00:50:21.415Z,77.28
2019-01-20T00:50:22.015Z,77.37
2019-01-20T00:50:22.614Z,77.37
2019-01-20T00:50:23.215Z,77.37
2019-01-20T00:50:23.814Z,77.37
2019-01-20T00:50:24.413Z,77.37
2019-01-20T00:51:18.919Z,77.75
2019-01-20T00:51:19.490Z,77.75
2019-01-20T00:51:20.092Z,77.85
2019-01-20T00:51:20.690Z,77.66
2019-01-20T00:51:21.295Z,77.75
2019-01-20T00:51:21.889Z,77.37
2019-01-20T00:51:22.490Z,77.75
2019-01-20T00:51:23.088Z,77.75
2019-01-20T00:52:17.594Z,77.85
2019-01-20T00:52:18.167Z,77.94
2019-01-20T00:52:18.766Z,77.75
2019-01-20T00:52:19.366Z,77.75
2019-01-20T00:52:19.966Z,77.85
2019-01-20T00:52:20.567Z,77.37
2019-01-20T00:52:21.166Z,77.85
2019-01-20T00:52:21.767Z,77.94
2019-01-20T00:53:16.268Z,77.56
2019-01-20T00:53:16.841Z,77.66
2019-01-20T00:53:17.442Z,77.56
2019-01-20T00:53:18.041Z,77.56
2019-01-20T00:53:18.641Z,77.56
2019-01-20T00:53:19.240Z,77.75
2019-01-20T00:53:19.839Z,77.56
2019-01-20T00:53:20.441Z,77.56
2019-01-20T00:54:13.923Z,78.13
2019-01-20T00:54:14.497Z,77.37
2019-01-20T00:54:15.095Z,77.47
2019-01-20T00:54:15.701Z,78.13
2019-01-20T00:54:16.293Z,77.28
2019-01-20T00:54:16.894Z,77.85
2019-01-20T00:54:17.494Z,77.37
2019-01-20T00:54:18.093Z,78.23
2019-01-20T00:55:12.596Z,78.23
2019-01-20T00:55:13.169Z,78.32
2019-01-20T00:55:13.772Z,78.32
2019-01-20T00:55:14.368Z,77.75
2019-01-20T00:55:14.969Z,78.32
2019-01-20T00:55:15.569Z,77.85
2019-01-20T00:55:16.202Z,78.32
2019-01-20T00:55:16.770Z,78.23
2019-01-20T00:56:22.949Z,77.94
2019-01-20T00:56:23.519Z,77.94
2019-01-20T00:56:24.119Z,77.94
2019-01-20T00:56:24.718Z,77.85
2019-01-20T00:56:25.317Z,77.94
2019-01-20T00:56:25.918Z,77.85
2019-01-20T00:56:26.517Z,77.94
2019-01-20T00:56:27.118Z,77.94
2019-01-20T00:57:21.111Z,77.94
2019-01-20T00:57:21.684Z,77.94
2019-01-20T00:57:22.282Z,78.04
2019-01-20T00:57:22.882Z,77.94
2019-01-20T00:57:23.480Z,77.85
2019-01-20T00:57:24.082Z,77.94
2019-01-20T00:57:24.685Z,78.04
2019-01-20T00:58:18.148Z,77.75
2019-01-20T00:58:18.734Z,77.94
2019-01-20T00:58:19.321Z,77.94
2019-01-20T00:58:19.919Z,78.04
2019-01-20T00:58:20.519Z,77.94
2019-01-20T00:58:21.120Z,77.85
2019-01-20T00:58:21.719Z,77.85
2019-01-20T00:58:22.319Z,77.85
2019-01-20T00:59:15.841Z,78.13
2019-01-20T00:59:16.373Z,78.13
2019-01-20T00:59:16.972Z,77.85
2019-01-20T00:59:17.571Z,78.13
2019-01-20T00:59:18.172Z,78.23
2019-01-20T00:59:18.771Z,78.04
2019-01-20T00:59:19.370Z,77.85
2019-01-20T00:59:19.971Z,78.13
2019-01-20T01:00:14.678Z,77.85
2019-01-20T01:00:15.252Z,78.13
2019-01-20T01:00:15.850Z,78.13
2019-01-20T01:00:16.451Z,77.85
2019-01-20T01:00:17.052Z,77.85
2019-01-20T01:00:17.656Z,77.85
2019-01-20T01:00:18.252Z,77.85
2019-01-20T01:00:18.861Z,77.85
2019-01-20T01:01:12.341Z,78.70
2019-01-20T01:01:12.905Z,78.60
2019-01-20T01:01:13.504Z,78.04
2019-01-20T01:01:14.105Z,78.04
2019-01-20T01:01:14.704Z,78.60
2019-01-20T01:01:15.304Z,78.70
2019-01-20T01:01:15.903Z,78.04
2019-01-20T01:01:16.503Z,78.79
2019-01-20T01:02:10.005Z,78.60
2019-01-20T01:02:10.556Z,78.70
2019-01-20T01:02:11.157Z,78.60
2019-01-20T01:02:11.756Z,78.42
2019-01-20T01:02:12.356Z,78.32
2019-01-20T01:02:12.956Z,78.70
2019-01-20T01:02:13.554Z,78.70
2019-01-20T01:02:14.154Z,78.51
2019-01-20T01:03:08.661Z,78.51
2019-01-20T01:03:09.232Z,78.42
2019-01-20T01:03:09.834Z,78.51
2019-01-20T01:03:10.431Z,78.51
2019-01-20T01:03:11.033Z,78.42
2019-01-20T01:03:11.630Z,78.51
2019-01-20T01:03:12.230Z,78.60
2019-01-20T01:03:12.830Z,78.51
2019-01-20T01:04:07.337Z,78.32
2019-01-20T01:04:07.907Z,78.51
2019-01-20T01:04:08.506Z,78.42
2019-01-20T01:04:09.107Z,78.60
2019-01-20T01:04:09.720Z,78.32
2019-01-20T01:04:10.305Z,78.32
2019-01-20T01:04:10.904Z,78.42
2019-01-20T01:04:11.504Z,78.32
2019-01-20T01:05:04.988Z,78.98
2019-01-20T01:05:05.560Z,78.98
2019-01-20T01:05:06.159Z,79.08
2019-01-20T01:05:06.760Z,78.70
2019-01-20T01:05:07.360Z,78.60
2019-01-20T01:05:07.958Z,78.98
2019-01-20T01:05:08.562Z,78.98
2019-01-20T01:05:09.159Z,79.08
2019-01-20T01:06:02.642Z,79.08
2019-01-20T01:06:03.211Z,79.17
2019-01-20T01:06:03.812Z,79.17
2019-01-20T01:06:04.412Z,78.98
2019-01-20T01:06:05.010Z,78.79
2019-01-20T01:06:05.610Z,78.89
2019-01-20T01:06:06.210Z,79.17
2019-01-20T01:06:06.812Z,78.89
2019-01-20T01:07:01.313Z,79.08
2019-01-20T01:07:01.887Z,79.17
2019-01-20T01:07:02.486Z,78.89
2019-01-20T01:07:03.086Z,79.08
2019-01-20T01:07:03.686Z,79.17
2019-01-20T01:07:04.285Z,79.08
2019-01-20T01:07:04.885Z,79.08
2019-01-20T01:07:05.485Z,78.98
2019-01-20T01:07:58.965Z,79.55
2019-01-20T01:07:59.541Z,79.46
2019-01-20T01:08:00.138Z,79.46
2019-01-20T01:08:00.737Z,79.46
2019-01-20T01:08:01.338Z,79.27
2019-01-20T01:08:01.937Z,79.55
2019-01-20T01:08:02.539Z,79.46
2019-01-20T01:08:03.137Z,79.55
2019-01-20T01:08:56.619Z,79.17
2019-01-20T01:08:57.191Z,79.55
2019-01-20T01:08:57.791Z,79.17
2019-01-20T01:08:58.391Z,79.55
2019-01-20T01:08:58.989Z,79.27
2019-01-20T01:08:59.591Z,79.55
2019-01-20T01:09:00.189Z,79.46
2019-01-20T01:09:00.788Z,79.17
2019-01-20T01:09:55.302Z,79.74
2019-01-20T01:09:55.867Z,79.64
2019-01-20T01:09:56.466Z,79.93
2019-01-20T01:09:57.064Z,79.55
2019-01-20T01:09:57.666Z,79.74
2019-01-20T01:09:58.264Z,80.11
2019-01-20T01:09:58.864Z,80.02
2019-01-20T01:09:59.479Z,79.83
2019-01-20T01:10:52.948Z,80.02
2019-01-20T01:10:53.530Z,80.11
2019-01-20T01:10:54.117Z,80.02
2019-01-20T01:10:54.718Z,80.02
2019-01-20T01:10:55.318Z,80.11
2019-01-20T01:10:55.916Z,80.11
2019-01-20T01:10:56.515Z,80.02
2019-01-20T01:10:57.116Z,80.21
2019-01-20T01:11:50.601Z,79.74
2019-01-20T01:11:51.169Z,79.83
2019-01-20T01:11:51.770Z,79.83
2019-01-20T01:11:52.370Z,79.74
2019-01-20T01:11:52.976Z,79.83
2019-01-20T01:11:53.579Z,80.21
2019-01-20T01:11:54.192Z,80.11
2019-01-20T01:11:54.770Z,80.02
2019-01-20T01:12:48.247Z,80.11
2019-01-20T01:12:48.820Z,80.21
2019-01-20T01:12:49.420Z,80.40
2019-01-20T01:12:50.022Z,80.49
2019-01-20T01:12:50.620Z,81.15
2019-01-20T01:12:51.220Z,80.49
2019-01-20T01:12:51.820Z,80.21
2019-01-20T01:12:52.429Z,80.68
2019-01-20T01:13:46.922Z,80.96
2019-01-20T01:13:47.497Z,81.05
2019-01-20T01:13:48.095Z,81.05
2019-01-20T01:13:48.695Z,81.05
2019-01-20T01:13:49.295Z,81.05
2019-01-20T01:13:49.894Z,80.96
2019-01-20T01:13:50.495Z,80.87
2019-01-20T01:13:51.095Z,80.96
2019-01-20T01:14:44.578Z,81.05
2019-01-20T01:14:45.149Z,81.05
2019-01-20T01:14:45.749Z,81.05
2019-01-20T01:14:46.349Z,81.05
2019-01-20T01:14:46.948Z,81.05
2019-01-20T01:14:47.548Z,80.87
2019-01-20T01:14:48.148Z,80.87
2019-01-20T01:14:48.749Z,81.34
2019-01-20T01:15:42.228Z,81.24
2019-01-20T01:15:42.803Z,81.62
2019-01-20T01:15:43.400Z,81.43
2019-01-20T01:15:43.999Z,81.53
2019-01-20T01:15:44.599Z,81.43
2019-01-20T01:15:45.199Z,81.43
2019-01-20T01:15:45.799Z,81.72
2019-01-20T01:15:46.401Z,81.72
2019-01-20T01:16:40.902Z,82.38
2019-01-20T01:16:41.477Z,82.28
2019-01-20T01:16:42.075Z,82.28
2019-01-20T01:16:42.675Z,82.28
2019-01-20T01:16:43.277Z,82.47
2019-01-20T01:16:43.874Z,82.28
2019-01-20T01:16:44.510Z,82.28
2019-01-20T01:16:45.080Z,82.28
2019-01-20T01:17:38.557Z,82.38
2019-01-20T01:17:39.128Z,82.28
2019-01-20T01:17:39.726Z,82.38
2019-01-20T01:17:40.327Z,82.38
2019-01-20T01:17:40.926Z,82.47
2019-01-20T01:17:41.526Z,82.38
2019-01-20T01:17:42.127Z,82.38
2019-01-20T01:17:42.731Z,82.47
2019-01-20T01:18:36.208Z,82.57
2019-01-20T01:18:36.783Z,82.85
2019-01-20T01:18:37.383Z,82.76
2019-01-20T01:18:37.978Z,82.76
2019-01-20T01:18:38.579Z,82.76
2019-01-20T01:18:39.180Z,82.76
2019-01-20T01:18:39.779Z,82.76
2019-01-20T01:18:40.380Z,82.76
2019-01-20T01:19:33.858Z,82.95
2019-01-20T01:19:34.432Z,83.23
2019-01-20T01:19:35.031Z,83.04
2019-01-20T01:19:35.641Z,83.14
2019-01-20T01:19:36.231Z,83.04
2019-01-20T01:19:36.830Z,83.04
2019-01-20T01:19:37.431Z,83.14
2019-01-20T01:19:38.029Z,83.04
2019-01-20T01:20:31.509Z,83.51
2019-01-20T01:20:32.082Z,82.95
2019-01-20T01:20:32.680Z,83.33
2019-01-20T01:20:33.281Z,83.51
2019-01-20T01:20:33.882Z,83.61
2019-01-20T01:20:34.481Z,82.95
2019-01-20T01:20:35.085Z,83.33
2019-01-20T01:20:35.681Z,83.61
2019-01-20T01:21:30.185Z,84.27
2019-01-20T01:21:30.758Z,83.70
2019-01-20T01:21:31.357Z,84.08
2019-01-20T01:21:31.956Z,83.70
2019-01-20T01:21:32.555Z,84.08
2019-01-20T01:21:33.155Z,84.08
2019-01-20T01:21:33.759Z,83.89
2019-01-20T01:21:34.357Z,83.70
2019-01-20T01:22:27.837Z,84.74
2019-01-20T01:22:28.411Z,84.64
2019-01-20T01:22:29.010Z,84.64
2019-01-20T01:22:29.627Z,84.64
2019-01-20T01:22:30.224Z,84.64
2019-01-20T01:22:30.846Z,84.17
2019-01-20T01:22:31.407Z,84.55
2019-01-20T01:22:32.007Z,84.17
2019-01-20T01:23:26.513Z,84.64
2019-01-20T01:23:27.084Z,84.64
2019-01-20T01:23:27.685Z,84.64
2019-01-20T01:23:28.284Z,84.92
2019-01-20T01:23:28.885Z,84.83
2019-01-20T01:23:29.484Z,84.64
2019-01-20T01:23:30.084Z,84.64
2019-01-20T01:23:30.684Z,84.83
2019-01-20T01:24:25.190Z,84.74
2019-01-20T01:24:25.767Z,84.74
2019-01-20T01:24:26.360Z,84.92
2019-01-20T01:24:26.960Z,84.74
2019-01-20T01:24:27.561Z,84.74
2019-01-20T01:24:28.160Z,84.74
2019-01-20T01:24:28.760Z,84.74
2019-01-20T01:24:29.359Z,84.74
2019-01-20T01:25:23.862Z,85.49
2019-01-20T01:25:24.436Z,85.11
2019-01-20T01:25:25.037Z,85.30
2019-01-20T01:25:25.635Z,85.02
2019-01-20T01:25:26.235Z,85.11
2019-01-20T01:25:26.835Z,85.49
2019-01-20T01:25:27.437Z,85.11
2019-01-20T01:25:28.033Z,85.49
2019-01-20T01:26:22.538Z,85.49
2019-01-20T01:26:23.112Z,86.06
2019-01-20T01:26:23.711Z,85.68
2019-01-20T01:26:24.311Z,86.06
2019-01-20T01:26:24.912Z,85.96
2019-01-20T01:26:25.510Z,85.77
2019-01-20T01:26:26.113Z,85.68
2019-01-20T01:26:26.733Z,85.77
2019-01-20T01:27:20.191Z,86.15
2019-01-20T01:27:20.764Z,86.34
2019-01-20T01:27:21.375Z,86.53
2019-01-20T01:27:21.970Z,86.44
2019-01-20T01:27:22.563Z,86.53
2019-01-20T01:27:23.168Z,86.25
2019-01-20T01:27:23.762Z,86.44
2019-01-20T01:27:24.363Z,86.44
2019-01-20T01:28:18.867Z,86.53
2019-01-20T01:28:19.442Z,86.63
2019-01-20T01:28:20.039Z,86.53
2019-01-20T01:28:20.638Z,86.53
2019-01-20T01:28:21.296Z,86.63
2019-01-20T01:28:21.844Z,86.63
2019-01-20T01:28:22.442Z,86.63
2019-01-20T01:28:23.037Z,86.53
2019-01-20T01:29:17.542Z,86.72
2019-01-20T01:29:18.116Z,86.72
2019-01-20T01:29:18.714Z,86.72
2019-01-20T01:29:19.314Z,86.72
2019-01-20T01:29:19.915Z,86.63
2019-01-20T01:29:20.515Z,86.63
2019-01-20T01:29:21.116Z,86.44
2019-01-20T01:29:21.714Z,86.63
2019-01-20T01:30:15.197Z,86.72
2019-01-20T01:30:15.771Z,86.53
2019-01-20T01:30:16.366Z,86.72
2019-01-20T01:30:16.967Z,86.63
2019-01-20T01:30:17.567Z,86.63
2019-01-20T01:30:18.167Z,86.72
2019-01-20T01:30:18.765Z,86.63
2019-01-20T01:30:19.366Z,86.53
2019-01-20T01:31:12.847Z,87.00
2019-01-20T01:31:13.420Z,87.10
2019-01-20T01:31:14.019Z,87.00
2019-01-20T01:31:14.618Z,87.29
2019-01-20T01:31:15.218Z,87.19
2019-01-20T01:31:15.819Z,87.10
2019-01-20T01:31:16.418Z,87.10
2019-01-20T01:31:17.017Z,87.19
2019-01-20T01:32:10.501Z,87.57
2019-01-20T01:32:11.070Z,87.48
2019-01-20T01:32:11.670Z,87.38
2019-01-20T01:32:12.270Z,87.48
2019-01-20T01:32:12.887Z,87.57
2019-01-20T01:32:13.471Z,87.48
2019-01-20T01:32:14.076Z,87.48
2019-01-20T01:32:14.668Z,87.57
2019-01-20T01:33:08.150Z,87.66
2019-01-20T01:33:08.722Z,87.38
2019-01-20T01:33:09.321Z,87.38
2019-01-20T01:33:09.921Z,87.29
2019-01-20T01:33:10.523Z,87.85
2019-01-20T01:33:11.120Z,87.48
2019-01-20T01:33:11.722Z,87.48
2019-01-20T01:33:12.352Z,87.48
2019-01-20T01:34:06.825Z,87.66
2019-01-20T01:34:07.396Z,87.95
2019-01-20T01:34:07.998Z,87.66
2019-01-20T01:34:08.596Z,88.42
2019-01-20T01:34:09.196Z,87.85
2019-01-20T01:34:09.796Z,88.23
2019-01-20T01:34:10.395Z,87.66
2019-01-20T01:34:10.995Z,87.85
2019-01-20T01:35:04.988Z,88.32
2019-01-20T01:35:05.563Z,88.32
2019-01-20T01:35:06.160Z,88.60
2019-01-20T01:35:06.760Z,88.32
2019-01-20T01:35:07.362Z,88.32
2019-01-20T01:35:07.961Z,88.79
2019-01-20T01:35:08.566Z,88.51
2019-01-20T01:36:03.052Z,88.51
2019-01-20T01:36:03.622Z,88.51
2019-01-20T01:36:04.223Z,88.51
2019-01-20T01:36:04.823Z,88.60
2019-01-20T01:36:05.422Z,88.60
2019-01-20T01:36:06.022Z,88.60
2019-01-20T01:36:06.626Z,88.70
2019-01-20T01:36:07.252Z,88.79
2019-01-20T01:37:00.702Z,89.17
2019-01-20T01:37:01.274Z,89.17
2019-01-20T01:37:01.896Z,89.55
2019-01-20T01:37:02.479Z,89.45
2019-01-20T01:37:03.072Z,89.08
2019-01-20T01:37:03.673Z,89.08
2019-01-20T01:37:04.273Z,89.08
2019-01-20T01:37:04.872Z,89.17
2019-01-20T01:37:58.355Z,89.36
2019-01-20T01:37:58.929Z,89.36
2019-01-20T01:37:59.526Z,88.98
2019-01-20T01:38:00.127Z,89.45
2019-01-20T01:38:00.727Z,89.36
2019-01-20T01:38:01.325Z,89.45
2019-01-20T01:38:01.925Z,89.36
2019-01-20T01:38:02.525Z,89.36
2019-01-20T01:38:57.035Z,89.36
2019-01-20T01:38:57.601Z,89.64
2019-01-20T01:38:58.200Z,89.64
2019-01-20T01:38:58.801Z,89.36
2019-01-20T01:38:59.403Z,89.36
2019-01-20T01:39:00.001Z,89.55
2019-01-20T01:39:00.599Z,89.17
2019-01-20T01:39:01.201Z,89.36
2019-01-20T01:39:55.705Z,89.83
2019-01-20T01:39:56.278Z,89.93
2019-01-20T01:39:56.878Z,89.93
2019-01-20T01:39:57.476Z,89.83
2019-01-20T01:39:58.077Z,89.93
2019-01-20T01:39:58.677Z,90.21
2019-01-20T01:39:59.277Z,90.02
2019-01-20T01:39:59.878Z,90.31
2019-01-20T01:40:54.893Z,89.93
2019-01-20T01:40:55.468Z,90.50
2019-01-20T01:40:56.064Z,90.50
2019-01-20T01:40:56.667Z,89.93
2019-01-20T01:40:57.266Z,90.50
2019-01-20T01:40:57.864Z,90.02
2019-01-20T01:40:58.465Z,90.59
2019-01-20T01:41:51.936Z,90.50
2019-01-20T01:41:52.506Z,90.97
2019-01-20T01:41:53.103Z,90.59
2019-01-20T01:41:53.703Z,90.50
2019-01-20T01:41:54.302Z,90.59
2019-01-20T01:41:54.902Z,90.87
2019-01-20T01:41:55.503Z,91.16
2019-01-20T01:41:56.104Z,90.87
2019-01-20T01:42:50.604Z,91.06
2019-01-20T01:42:51.178Z,90.87
2019-01-20T01:42:51.778Z,91.25
2019-01-20T01:42:52.378Z,91.72
2019-01-20T01:42:52.982Z,91.53
2019-01-20T01:42:53.577Z,91.44
2019-01-20T01:42:54.176Z,91.35
2019-01-20T01:42:54.777Z,91.35
2019-01-20T01:44:00.958Z,91.53
2019-01-20T01:44:01.527Z,91.35
2019-01-20T01:44:02.126Z,91.25
2019-01-20T01:44:02.732Z,91.25
2019-01-20T01:44:03.337Z,91.35
2019-01-20T01:44:03.925Z,91.35
2019-01-20T01:44:04.526Z,91.53
2019-01-20T01:44:05.123Z,91.35
2019-01-20T01:44:58.618Z,91.44
2019-01-20T01:44:59.183Z,91.25
2019-01-20T01:44:59.780Z,91.35
2019-01-20T01:45:00.379Z,91.63
2019-01-20T01:45:00.979Z,91.35
2019-01-20T01:45:01.578Z,91.35
2019-01-20T01:45:02.179Z,91.35
2019-01-20T01:45:02.778Z,91.44
2019-01-20T01:45:57.282Z,91.35
2019-01-20T01:45:57.855Z,91.72
2019-01-20T01:45:58.453Z,91.72
2019-01-20T01:45:59.053Z,91.72
2019-01-20T01:45:59.654Z,91.72
2019-01-20T01:46:00.253Z,91.53
2019-01-20T01:46:00.853Z,91.35
2019-01-20T01:46:01.453Z,91.72
2019-01-20T01:46:54.933Z,91.91
2019-01-20T01:46:55.507Z,92.19
2019-01-20T01:46:56.107Z,92.00
2019-01-20T01:46:56.711Z,92.10
2019-01-20T01:46:57.308Z,91.82
2019-01-20T01:46:57.906Z,92.10
2019-01-20T01:46:58.507Z,92.00
2019-01-20T01:46:59.109Z,92.19
2019-01-20T01:47:52.595Z,92.10
2019-01-20T01:47:53.158Z,92.19
2019-01-20T01:47:53.759Z,92.29
2019-01-20T01:47:54.358Z,91.91
2019-01-20T01:47:54.958Z,92.19
2019-01-20T01:47:55.558Z,92.10
2019-01-20T01:47:56.162Z,91.91
2019-01-20T01:47:56.760Z,92.10
2019-01-20T01:48:51.259Z,92.66
2019-01-20T01:48:51.834Z,92.76
2019-01-20T01:48:52.437Z,92.76
2019-01-20T01:48:53.032Z,92.66
2019-01-20T01:48:53.632Z,92.66
2019-01-20T01:48:54.234Z,92.66
2019-01-20T01:48:54.832Z,92.66
2019-01-20T01:48:55.431Z,92.66
2019-01-20T01:49:49.936Z,93.23
2019-01-20T01:49:50.522Z,93.23
2019-01-20T01:49:51.112Z,93.13
2019-01-20T01:49:51.709Z,93.23
2019-01-20T01:49:52.310Z,93.32
2019-01-20T01:49:52.910Z,93.23
2019-01-20T01:49:53.516Z,93.32
2019-01-20T01:49:54.111Z,93.32
2019-01-20T01:50:48.611Z,93.80
2019-01-20T01:50:49.187Z,93.61
2019-01-20T01:50:49.786Z,93.61
2019-01-20T01:50:50.385Z,93.51
2019-01-20T01:50:50.985Z,93.70
2019-01-20T01:50:51.584Z,93.70
2019-01-20T01:50:52.183Z,93.61
2019-01-20T01:50:52.785Z,93.61
2019-01-20T01:51:46.265Z,93.51
2019-01-20T01:51:46.838Z,93.51
2019-01-20T01:51:47.440Z,93.23
2019-01-20T01:51:48.050Z,93.51
2019-01-20T01:51:48.643Z,93.23
2019-01-20T01:51:49.237Z,93.23
2019-01-20T01:51:49.836Z,93.32
2019-01-20T01:51:50.436Z,93.51
2019-01-20T01:52:44.941Z,93.89
2019-01-20T01:52:45.514Z,93.89
2019-01-20T01:52:46.113Z,93.99
2019-01-20T01:52:46.713Z,93.99
2019-01-20T01:52:47.316Z,93.99
2019-01-20T01:52:47.918Z,93.99
2019-01-20T01:52:48.562Z,93.99
2019-01-20T01:52:49.112Z,94.08
2019-01-20T01:53:43.615Z,94.65
2019-01-20T01:53:44.187Z,94.65
2019-01-20T01:53:44.788Z,94.36
2019-01-20T01:53:45.387Z,94.65
2019-01-20T01:53:45.992Z,94.55
2019-01-20T01:53:46.597Z,94.55
2019-01-20T01:53:47.193Z,94.65
2019-01-20T01:53:47.788Z,94.55
2019-01-20T01:54:41.269Z,94.74
2019-01-20T01:54:41.840Z,94.36
2019-01-20T01:54:42.440Z,94.36
2019-01-20T01:54:43.041Z,94.84
2019-01-20T01:54:43.640Z,94.55
2019-01-20T01:54:44.239Z,94.84
2019-01-20T01:54:44.840Z,95.03
2019-01-20T01:54:45.439Z,94.93
2019-01-20T01:55:38.920Z,95.31
2019-01-20T01:55:39.492Z,95.21
2019-01-20T01:55:40.091Z,95.40
2019-01-20T01:55:40.692Z,95.31
2019-01-20T01:55:41.293Z,95.40
2019-01-20T01:55:41.894Z,95.31
2019-01-20T01:55:42.491Z,95.31
2019-01-20T01:55:43.091Z,95.31
2019-01-20T01:56:36.575Z,95.50
2019-01-20T01:56:37.146Z,95.40
2019-01-20T01:56:37.742Z,95.59
2019-01-20T01:56:38.343Z,95.21
2019-01-20T01:56:38.942Z,95.40
2019-01-20T01:56:39.542Z,95.59
2019-01-20T01:56:40.142Z,95.50
2019-01-20T01:56:40.746Z,95.50
2019-01-20T01:57:34.223Z,95.40
2019-01-20T01:57:34.798Z,95.87
2019-01-20T01:57:35.395Z,95.78
2019-01-20T01:57:36.010Z,95.59
2019-01-20T01:57:36.628Z,95.68
2019-01-20T01:57:37.199Z,95.68
2019-01-20T01:57:37.794Z,95.87
2019-01-20T01:57:38.394Z,95.87
2019-01-20T01:58:31.874Z,95.78
2019-01-20T01:58:32.447Z,95.78
2019-01-20T01:58:33.048Z,95.87
2019-01-20T01:58:33.646Z,95.68
2019-01-20T01:58:34.246Z,95.78
2019-01-20T01:58:34.845Z,95.68
2019-01-20T01:58:35.446Z,95.78
2019-01-20T01:58:36.046Z,95.78
2019-01-20T01:59:30.549Z,96.44
2019-01-20T01:59:31.123Z,95.97
2019-01-20T01:59:31.722Z,96.06
2019-01-20T01:59:32.320Z,95.78
2019-01-20T01:59:32.922Z,95.78
2019-01-20T01:59:33.524Z,96.06
2019-01-20T01:59:34.125Z,95.87
2019-01-20T01:59:34.720Z,95.87
2019-01-20T02:00:29.225Z,95.78
2019-01-20T02:00:29.797Z,95.68
2019-01-20T02:00:30.397Z,95.97
2019-01-20T02:00:30.998Z,95.78
2019-01-20T02:00:31.598Z,95.50
2019-01-20T02:00:32.197Z,95.78
2019-01-20T02:00:32.798Z,95.97
2019-01-20T02:00:33.396Z,95.68
2019-01-20T02:01:27.900Z,95.68
2019-01-20T02:01:28.474Z,95.97
2019-01-20T02:01:29.074Z,95.78
2019-01-20T02:01:29.724Z,95.87
2019-01-20T02:01:30.271Z,95.68
2019-01-20T02:01:30.871Z,95.97
2019-01-20T02:01:31.471Z,95.68
2019-01-20T02:01:32.070Z,95.78
2019-01-20T02:02:26.641Z,96.34
2019-01-20T02:02:27.148Z,96.34
2019-01-20T02:02:27.751Z,96.44
2019-01-20T02:02:28.349Z,96.34
2019-01-20T02:02:28.949Z,96.34
2019-01-20T02:02:29.548Z,96.44
2019-01-20T02:02:30.149Z,96.44
2019-01-20T02:02:30.750Z,96.44